Nissho Maru No7 — JH3472 — position and weather

sailwx.info

Track history (hours):
 
Tides and Currents Weather Stations Pressure Air Temp Water Temp Dewpoint Dewpoint Depression Visibility Wind Speed Wind Dir Waves Ship Positions

Nissho Maru No7

Last reported at 2014-Sep-18 11:22 UTC. Time now 2014-Sep-21 12:13 UTC.
Position N 35°56' E 140°40'.

Length 73 m.

MMSI: 431200355.

Date/timePositionNaut miles runAvg speedWind from/ knotsBaromVisibWave heightAir tempDewpointWater temp
2014-Sep-18 11:22N 35°56' E 140°40'4 5.1
2014-Sep-18 10:32N 35°59' E 140°43'11 0.2
2014-Sep-16 10:29N 35°59' E 140°57'2111.0
2014-Sep-16 08:33N 35°38' E 140°51'1211.9
2014-Sep-16 07:33N 35°28' E 140°42'1511.3
2014-Sep-16 06:12N 35°16' E 140°32'2112.8
2014-Sep-16 04:32N 35°01' E 140°13'1412.1
2014-Sep-16 03:21N 34°54' E 139°58'1010.1
2014-Sep-16 02:24N 34°55' E 139°46'910.9
2014-Sep-16 01:33N 35°04' E 139°45'1111.2
2014-Sep-16 00:33N 35°15' E 139°47'1110.9
2014-Sep-15 23:33N 35°26' E 139°43'2 1.9
2014-Sep-15 22:33N 35°26' E 139°45'8 8.2
2014-Sep-15 21:33N 35°22' E 139°53'0 0.0
2014-Sep-15 20:27N 35°22' E 139°53'0 0.0
2014-Sep-15 19:27N 35°22' E 139°53'0 0.0
2014-Sep-15 18:33N 35°22' E 139°53'0 0.0
2014-Sep-15 17:24N 35°22' E 139°53'0 0.0
2014-Sep-15 16:30N 35°22' E 139°53'0 0.0
2014-Sep-15 15:30N 35°22' E 139°53'0 0.0
2014-Sep-15 14:33N 35°22' E 139°53'0 0.0
2014-Sep-15 13:33N 35°22' E 139°53'0 0.0
2014-Sep-15 12:30N 35°22' E 139°53'0 0.0
2014-Sep-15 11:33N 35°22' E 139°53'0 0.0
2014-Sep-15 10:33N 35°22' E 139°53'0 0.0
2014-Sep-15 09:30N 35°22' E 139°53'0 0.0
2014-Sep-15 08:30N 35°22' E 139°53'4 3.7
2014-Sep-15 07:33N 35°24' E 139°51'0 0.0
2014-Sep-15 06:33N 35°24' E 139°51'0 0.1
2014-Sep-15 05:33N 35°24' E 139°51'0 0.0
2014-Sep-15 04:33N 35°24' E 139°51'1 1.0
2014-Sep-15 03:33N 35°25' E 139°50'1010.2
2014-Sep-15 02:33N 35°35' E 139°51'3 0.8
2014-Sep-14 22:33N 35°38' E 139°48'8 8.0
2014-Sep-14 21:33N 35°35' E 139°57'6 6.2
2014-Sep-14 20:31N 35°37' E 140°05'0 0.0
2014-Sep-14 19:28N 35°37' E 140°05'0 0.0
2014-Sep-14 18:28N 35°37' E 140°05'0 0.0
2014-Sep-14 17:31N 35°37' E 140°05'0 0.0
2014-Sep-14 16:31N 35°37' E 140°05'0 0.0
2014-Sep-14 15:31N 35°37' E 140°05'0 0.0
2014-Sep-14 14:31N 35°37' E 140°05'0 0.0
2014-Sep-14 13:28N 35°37' E 140°05'0 0.0
2014-Sep-14 12:28N 35°37' E 140°05'0 0.0
2014-Sep-14 11:28N 35°37' E 140°05'0 0.0
2014-Sep-14 10:25N 35°37' E 140°05'0 0.0
2014-Sep-14 09:31N 35°37' E 140°05'0 0.0
2014-Sep-14 08:22N 35°37' E 140°05'0 0.0
2014-Sep-14 07:31N 35°37' E 140°05'0 0.0
2014-Sep-14 06:31N 35°37' E 140°05'0 0.0
2014-Sep-14 05:28N 35°37' E 140°05'0 0.0
2014-Sep-14 04:31N 35°37' E 140°05'0 0.0
2014-Sep-14 03:25N 35°37' E 140°05'0 0.0
2014-Sep-14 02:31N 35°37' E 140°05'5 5.3
2014-Sep-14 01:33N 35°37' E 139°58'1 0.3
2014-Sep-13 21:33N 35°37' E 139°58'4 4.4
2014-Sep-13 20:33N 35°33' E 139°55'1010.0
2014-Sep-13 19:33N 35°25' E 139°47'9 8.7
2014-Sep-13 18:33N 35°16' E 139°46'10 9.8
2014-Sep-13 17:33N 35°07' E 139°46'244 9.0
2014-Sep-12 14:22N 33°60' E 135°01'1111.2
2014-Sep-12 13:22N 34°11' E 134°60'810.5
2014-Sep-12 12:33N 34°19' E 134°59'1110.7
2014-Sep-12 11:33N 34°30' E 135°02'16 0.3
2014-Sep-10 08:33N 34°40' E 134°48'1010.3
2014-Sep-10 07:33N 34°37' E 134°60'10 9.6
2014-Sep-10 06:33N 34°36' E 135°11'1110.8
2014-Sep-10 05:33N 34°39' E 135°24'3 2.9
2014-Sep-10 04:30N 34°39' E 135°28'0 0.0
2014-Sep-10 03:24N 34°39' E 135°28'0 0.0
2014-Sep-10 02:30N 34°39' E 135°28'0 0.0
2014-Sep-10 01:30N 34°39' E 135°28'0 0.0
2014-Sep-10 00:33N 34°39' E 135°28'0 0.0
2014-Sep-09 23:32N 34°39' E 135°28'8 7.9
2014-Sep-09 22:33N 34°36' E 135°19'1110.7
2014-Sep-09 21:33N 34°29' E 135°09'5 4.7
2014-Sep-09 20:33N 34°33' E 135°06'133 4.0
2014-Sep-08 11:22N 34°19' E 132°25'  
Track history (hours):
 
Tides and Currents Weather Stations Pressure Air Temp Water Temp Dewpoint Dewpoint Depression Visibility Wind Speed Wind Dir Waves Ship Positions

Nissho Maru No7

Last reported at 2014-Sep-18 11:22 UTC. Time now 2014-Sep-21 12:13 UTC.
Position N 35°56' E 140°40'.

Length 73 m.

MMSI: 431200355.

Date/timePositionNaut miles runAvg speedWind from/ knotsBaromVisibWave heightAir tempDewpointWater temp
2014-Sep-18 11:22N 35°56' E 140°40'4 5.1
2014-Sep-18 10:32N 35°59' E 140°43'11 0.2
2014-Sep-16 10:29N 35°59' E 140°57'2111.0
2014-Sep-16 08:33N 35°38' E 140°51'1211.9
2014-Sep-16 07:33N 35°28' E 140°42'1511.3
2014-Sep-16 06:12N 35°16' E 140°32'2112.8
2014-Sep-16 04:32N 35°01' E 140°13'1412.1
2014-Sep-16 03:21N 34°54' E 139°58'1010.1
2014-Sep-16 02:24N 34°55' E 139°46'910.9
2014-Sep-16 01:33N 35°04' E 139°45'1111.2
2014-Sep-16 00:33N 35°15' E 139°47'1110.9
2014-Sep-15 23:33N 35°26' E 139°43'2 1.9
2014-Sep-15 22:33N 35°26' E 139°45'8 8.2
2014-Sep-15 21:33N 35°22' E 139°53'0 0.0
2014-Sep-15 20:27N 35°22' E 139°53'0 0.0
2014-Sep-15 19:27N 35°22' E 139°53'0 0.0
2014-Sep-15 18:33N 35°22' E 139°53'0 0.0
2014-Sep-15 17:24N 35°22' E 139°53'0 0.0
2014-Sep-15 16:30N 35°22' E 139°53'0 0.0
2014-Sep-15 15:30N 35°22' E 139°53'0 0.0
2014-Sep-15 14:33N 35°22' E 139°53'0 0.0
2014-Sep-15 13:33N 35°22' E 139°53'0 0.0
2014-Sep-15 12:30N 35°22' E 139°53'0 0.0
2014-Sep-15 11:33N 35°22' E 139°53'0 0.0
2014-Sep-15 10:33N 35°22' E 139°53'0 0.0
2014-Sep-15 09:30N 35°22' E 139°53'0 0.0
2014-Sep-15 08:30N 35°22' E 139°53'4 3.7
2014-Sep-15 07:33N 35°24' E 139°51'0 0.0
2014-Sep-15 06:33N 35°24' E 139°51'0 0.1
2014-Sep-15 05:33N 35°24' E 139°51'0 0.0
2014-Sep-15 04:33N 35°24' E 139°51'1 1.0
2014-Sep-15 03:33N 35°25' E 139°50'1010.2
2014-Sep-15 02:33N 35°35' E 139°51'3 0.8
2014-Sep-14 22:33N 35°38' E 139°48'8 8.0
2014-Sep-14 21:33N 35°35' E 139°57'6 6.2
2014-Sep-14 20:31N 35°37' E 140°05'0 0.0
2014-Sep-14 19:28N 35°37' E 140°05'0 0.0
2014-Sep-14 18:28N 35°37' E 140°05'0 0.0
2014-Sep-14 17:31N 35°37' E 140°05'0 0.0
2014-Sep-14 16:31N 35°37' E 140°05'0 0.0
2014-Sep-14 15:31N 35°37' E 140°05'0 0.0
2014-Sep-14 14:31N 35°37' E 140°05'0 0.0
2014-Sep-14 13:28N 35°37' E 140°05'0 0.0
2014-Sep-14 12:28N 35°37' E 140°05'0 0.0
2014-Sep-14 11:28N 35°37' E 140°05'0 0.0
2014-Sep-14 10:25N 35°37' E 140°05'0 0.0
2014-Sep-14 09:31N 35°37' E 140°05'0 0.0
2014-Sep-14 08:22N 35°37' E 140°05'0 0.0
2014-Sep-14 07:31N 35°37' E 140°05'0 0.0
2014-Sep-14 06:31N 35°37' E 140°05'0 0.0
2014-Sep-14 05:28N 35°37' E 140°05'0 0.0
2014-Sep-14 04:31N 35°37' E 140°05'0 0.0
2014-Sep-14 03:25N 35°37' E 140°05'0 0.0
2014-Sep-14 02:31N 35°37' E 140°05'5 5.3
2014-Sep-14 01:33N 35°37' E 139°58'1 0.3
2014-Sep-13 21:33N 35°37' E 139°58'4 4.4
2014-Sep-13 20:33N 35°33' E 139°55'1010.0
2014-Sep-13 19:33N 35°25' E 139°47'9 8.7
2014-Sep-13 18:33N 35°16' E 139°46'10 9.8
2014-Sep-13 17:33N 35°07' E 139°46'244 9.0
2014-Sep-12 14:22N 33°60' E 135°01'1111.2
2014-Sep-12 13:22N 34°11' E 134°60'810.5
2014-Sep-12 12:33N 34°19' E 134°59'1110.7
2014-Sep-12 11:33N 34°30' E 135°02'16 0.3
2014-Sep-10 08:33N 34°40' E 134°48'1010.3
2014-Sep-10 07:33N 34°37' E 134°60'10 9.6
2014-Sep-10 06:33N 34°36' E 135°11'1110.8
2014-Sep-10 05:33N 34°39' E 135°24'3 2.9
2014-Sep-10 04:30N 34°39' E 135°28'0 0.0
2014-Sep-10 03:24N 34°39' E 135°28'0 0.0
2014-Sep-10 02:30N 34°39' E 135°28'0 0.0
2014-Sep-10 01:30N 34°39' E 135°28'0 0.0
2014-Sep-10 00:33N 34°39' E 135°28'0 0.0
2014-Sep-09 23:32N 34°39' E 135°28'8 7.9
2014-Sep-09 22:33N 34°36' E 135°19'1110.7
2014-Sep-09 21:33N 34°29' E 135°09'5 4.7
2014-Sep-09 20:33N 34°33' E 135°06'133 4.0
2014-Sep-08 11:22N 34°19' E 132°25'  

Dump ship's entire track history